sensor_id;sensor_type;location;lat;lon;timestamp;pressure;altitude;pressure_sealevel;temperature;humidity
44751;BME280;30477;48.224;11.470;2023-04-08T00:01:24;96127.06;;;6.30;66.00
44751;BME280;30477;48.224;11.470;2023-04-08T00:03:50;96119.44;;;6.29;66.28
44751;BME280;30477;48.224;11.470;2023-04-08T00:06:15;96125.91;;;6.35;66.23
44751;BME280;30477;48.224;11.470;2023-04-08T00:08:41;96123.59;;;6.43;66.14
44751;BME280;30477;48.224;11.470;2023-04-08T00:11:06;96125.09;;;6.45;65.44
44751;BME280;30477;48.224;11.470;2023-04-08T00:13:31;96130.06;;;6.24;65.92
44751;BME280;30477;48.224;11.470;2023-04-08T00:15:57;96133.19;;;6.17;66.56
44751;BME280;30477;48.224;11.470;2023-04-08T00:18:22;96130.28;;;6.21;66.65
44751;BME280;30477;48.224;11.470;2023-04-08T00:20:47;96125.09;;;6.34;66.61
44751;BME280;30477;48.224;11.470;2023-04-08T00:23:13;96130.00;;;6.37;66.37
44751;BME280;30477;48.224;11.470;2023-04-08T00:25:38;96124.84;;;6.37;66.47
44751;BME280;30477;48.224;11.470;2023-04-08T00:28:03;96123.66;;;6.30;66.22
44751;BME280;30477;48.224;11.470;2023-04-08T00:30:29;96120.16;;;6.31;66.62
44751;BME280;30477;48.224;11.470;2023-04-08T00:32:54;96126.44;;;6.27;66.45
44751;BME280;30477;48.224;11.470;2023-04-08T00:35:19;96131.31;;;6.19;66.64
44751;BME280;30477;48.224;11.470;2023-04-08T00:37:45;96138.13;;;6.20;66.62
44751;BME280;30477;48.224;11.470;2023-04-08T00:40:10;96136.25;;;6.22;66.62
44751;BME280;30477;48.224;11.470;2023-04-08T00:42:37;96136.47;;;6.19;66.85
44751;BME280;30477;48.224;11.470;2023-04-08T00:45:02;96144.88;;;6.21;66.76
44751;BME280;30477;48.224;11.470;2023-04-08T00:47:28;96138.81;;;6.22;66.94
44751;BME280;30477;48.224;11.470;2023-04-08T00:49:53;96136.38;;;6.20;66.83
44751;BME280;30477;48.224;11.470;2023-04-08T00:52:18;96141.41;;;6.22;67.07
44751;BME280;30477;48.224;11.470;2023-04-08T00:54:44;96144.69;;;6.24;67.04
44751;BME280;30477;48.224;11.470;2023-04-08T00:57:09;96138.13;;;6.20;66.72
44751;BME280;30477;48.224;11.470;2023-04-08T00:59:35;96137.25;;;6.08;66.93
44751;BME280;30477;48.224;11.470;2023-04-08T01:05:07;96137.34;;;6.06;67.67
44751;BME280;30477;48.224;11.470;2023-04-08T01:07:36;96130.91;;;6.01;67.67
44751;BME280;30477;48.224;11.470;2023-04-08T01:10:24;96132.00;;;6.09;67.87
44751;BME280;30477;48.224;11.470;2023-04-08T01:12:56;96130.69;;;6.04;67.75
44751;BME280;30477;48.224;11.470;2023-04-08T01:15:23;96131.63;;;6.03;67.88
44751;BME280;30477;48.224;11.470;2023-04-08T01:17:53;96131.13;;;5.98;67.77
44751;BME280;30477;48.224;11.470;2023-04-08T01:20:20;96130.34;;;6.08;67.82
44751;BME280;30477;48.224;11.470;2023-04-08T01:25:32;96131.84;;;5.87;67.67
44751;BME280;30477;48.224;11.470;2023-04-08T01:28:13;96130.47;;;5.94;67.97
44751;BME280;30477;48.224;11.470;2023-04-08T01:30:40;96130.47;;;5.94;67.86
44751;BME280;30477;48.224;11.470;2023-04-08T01:33:06;96133.72;;;5.85;67.95
44751;BME280;30477;48.224;11.470;2023-04-08T01:35:32;96129.44;;;5.73;68.07
44751;BME280;30477;48.224;11.470;2023-04-08T01:37:59;96132.56;;;5.65;68.25
44751;BME280;30477;48.224;11.470;2023-04-08T01:40:25;96138.72;;;5.62;68.57
44751;BME280;30477;48.224;11.470;2023-04-08T01:42:55;96136.06;;;5.64;68.52
44751;BME280;30477;48.224;11.470;2023-04-08T01:45:22;96134.56;;;5.73;68.69
44751;BME280;30477;48.224;11.470;2023-04-08T01:47:48;96133.06;;;5.70;68.38
44751;BME280;30477;48.224;11.470;2023-04-08T01:50:15;96130.81;;;5.65;68.68
44751;BME280;30477;48.224;11.470;2023-04-08T01:52:43;96132.88;;;5.60;68.89
44751;BME280;30477;48.224;11.470;2023-04-08T01:55:09;96132.16;;;5.58;68.74
44751;BME280;30477;48.224;11.470;2023-04-08T01:57:36;96129.06;;;5.66;68.92
44751;BME280;30477;48.224;11.470;2023-04-08T02:00:09;96128.84;;;5.69;69.00
44751;BME280;30477;48.224;11.470;2023-04-08T02:02:37;96136.75;;;5.66;68.75
44751;BME280;30477;48.224;11.470;2023-04-08T02:05:03;96129.38;;;5.61;68.99
44751;BME280;30477;48.224;11.470;2023-04-08T02:07:28;96131.78;;;5.52;69.00
44751;BME280;30477;48.224;11.470;2023-04-08T02:09:55;96138.75;;;5.49;69.13
44751;BME280;30477;48.224;11.470;2023-04-08T02:12:21;96135.00;;;5.42;69.37
44751;BME280;30477;48.224;11.470;2023-04-08T02:14:47;96136.75;;;5.42;69.57
44751;BME280;30477;48.224;11.470;2023-04-08T02:17:24;96138.59;;;5.27;69.48
44751;BME280;30477;48.224;11.470;2023-04-08T02:20:14;96137.50;;;5.18;69.70
44751;BME280;30477;48.224;11.470;2023-04-08T02:25:14;96137.72;;;5.15;70.39
44751;BME280;30477;48.224;11.470;2023-04-08T02:27:41;96135.22;;;5.26;70.59
44751;BME280;30477;48.224;11.470;2023-04-08T02:30:09;96136.66;;;5.18;70.17
44751;BME280;30477;48.224;11.470;2023-04-08T02:32:36;96142.31;;;5.10;70.54
44751;BME280;30477;48.224;11.470;2023-04-08T02:35:03;96132.28;;;5.07;70.78
44751;BME280;30477;48.224;11.470;2023-04-08T02:37:29;96139.47;;;5.15;70.77
44751;BME280;30477;48.224;11.470;2023-04-08T02:39:55;96142.00;;;5.27;71.08
44751;BME280;30477;48.224;11.470;2023-04-08T02:42:20;96140.22;;;5.41;71.02
44751;BME280;30477;48.224;11.470;2023-04-08T02:44:45;96140.03;;;5.44;70.83
44751;BME280;30477;48.224;11.470;2023-04-08T02:47:11;96141.25;;;5.38;70.40
44751;BME280;30477;48.224;11.470;2023-04-08T02:49:36;96139.03;;;5.34;70.40
44751;BME280;30477;48.224;11.470;2023-04-08T02:52:01;96135.75;;;5.32;70.88
44751;BME280;30477;48.224;11.470;2023-04-08T02:54:27;96139.03;;;5.34;70.87
44751;BME280;30477;48.224;11.470;2023-04-08T02:56:52;96133.28;;;5.30;70.43
44751;BME280;30477;48.224;11.470;2023-04-08T02:59:17;96134.91;;;5.18;70.86
44751;BME280;30477;48.224;11.470;2023-04-08T03:01:43;96140.34;;;5.26;71.21
44751;BME280;30477;48.224;11.470;2023-04-08T03:04:08;96137.19;;;5.23;70.71
44751;BME280;30477;48.224;11.470;2023-04-08T03:06:34;96138.03;;;4.98;71.20
44751;BME280;30477;48.224;11.470;2023-04-08T03:08:59;96141.94;;;4.91;71.33
44751;BME280;30477;48.224;11.470;2023-04-08T03:11:24;96142.16;;;4.87;71.96
44751;BME280;30477;48.224;11.470;2023-04-08T03:13:50;96147.06;;;4.91;71.81
44751;BME280;30477;48.224;11.470;2023-04-08T03:16:15;96143.78;;;4.88;72.19
44751;BME280;30477;48.224;11.470;2023-04-08T03:18:41;96146.56;;;4.98;72.30
44751;BME280;30477;48.224;11.470;2023-04-08T03:21:06;96146.22;;;5.03;72.61
44751;BME280;30477;48.224;11.470;2023-04-08T03:23:31;96152.38;;;5.13;72.38
44751;BME280;30477;48.224;11.470;2023-04-08T03:25:57;96150.94;;;5.09;72.07
44751;BME280;30477;48.224;11.470;2023-04-08T03:28:22;96152.50;;;4.99;72.10
44751;BME280;30477;48.224;11.470;2023-04-08T03:30:48;96145.19;;;5.05;72.32
44751;BME280;30477;48.224;11.470;2023-04-08T03:33:13;96150.16;;;4.96;72.21
44751;BME280;30477;48.224;11.470;2023-04-08T03:35:38;96154.34;;;4.97;72.70
44751;BME280;30477;48.224;11.470;2023-04-08T03:38:04;96151.88;;;4.95;72.87
44751;BME280;30477;48.224;11.470;2023-04-08T03:40:29;96153.72;;;4.93;72.76
44751;BME280;30477;48.224;11.470;2023-04-08T03:42:55;96158.25;;;4.90;73.25
44751;BME280;30477;48.224;11.470;2023-04-08T03:45:20;96157.31;;;5.03;73.22
44751;BME280;30477;48.224;11.470;2023-04-08T03:47:45;96152.41;;;5.00;73.11
44751;BME280;30477;48.224;11.470;2023-04-08T03:50:11;96157.72;;;5.10;73.28
44751;BME280;30477;48.224;11.470;2023-04-08T03:52:36;96156.28;;;5.19;73.13
44751;BME280;30477;48.224;11.470;2023-04-08T03:55:01;96160.09;;;5.13;72.91
44751;BME280;30477;48.224;11.470;2023-04-08T03:57:27;96160.41;;;5.08;73.06
44751;BME280;30477;48.224;11.470;2023-04-08T03:59:52;96161.00;;;5.12;73.27
44751;BME280;30477;48.224;11.470;2023-04-08T04:02:18;96164.28;;;5.14;73.37
44751;BME280;30477;48.224;11.470;2023-04-08T04:04:43;96158.53;;;5.23;73.16
44751;BME280;30477;48.224;11.470;2023-04-08T04:07:08;96161.72;;;5.14;73.16
44751;BME280;30477;48.224;11.470;2023-04-08T04:09:34;96161.41;;;5.06;73.28
44751;BME280;30477;48.224;11.470;2023-04-08T04:11:59;96160.81;;;5.02;73.25
44751;BME280;30477;48.224;11.470;2023-04-08T04:14:24;96169.00;;;4.95;73.61
44751;BME280;30477;48.224;11.470;2023-04-08T04:16:50;96174.13;;;4.95;74.10
44751;BME280;30477;48.224;11.470;2023-04-08T04:19:15;96176.22;;;4.90;74.06
44751;BME280;30477;48.224;11.470;2023-04-08T04:21:42;96184.72;;;4.90;74.53
44751;BME280;30477;48.224;11.470;2023-04-08T04:24:07;96186.47;;;4.90;74.69
44751;BME280;30477;48.224;11.470;2023-04-08T04:26:33;96188.63;;;4.96;75.00
44751;BME280;30477;48.224;11.470;2023-04-08T04:28:58;96189.84;;;5.03;74.80
44751;BME280;30477;48.224;11.470;2023-04-08T04:31:24;96187.28;;;5.03;74.83
44751;BME280;30477;48.224;11.470;2023-04-08T04:33:52;96195.47;;;5.08;75.17
44751;BME280;30477;48.224;11.470;2023-04-08T04:36:18;96195.69;;;5.05;75.18
44751;BME280;30477;48.224;11.470;2023-04-08T04:38:44;96197.31;;;5.06;75.44
44751;BME280;30477;48.224;11.470;2023-04-08T04:41:10;96207.81;;;5.03;75.02
44751;BME280;30477;48.224;11.470;2023-04-08T04:43:35;96209.00;;;5.10;75.71
44751;BME280;30477;48.224;11.470;2023-04-08T04:46:01;96203.69;;;5.13;75.12
44751;BME280;30477;48.224;11.470;2023-04-08T04:48:28;96205.94;;;5.05;75.52
44751;BME280;30477;48.224;11.470;2023-04-08T04:50:57;96203.88;;;5.10;75.74
44751;BME280;30477;48.224;11.470;2023-04-08T04:53:23;96203.47;;;5.16;75.84
44751;BME280;30477;48.224;11.470;2023-04-08T04:55:49;96205.53;;;5.24;75.92
44751;BME280;30477;48.224;11.470;2023-04-08T04:58:14;96199.69;;;5.35;75.86
44751;BME280;30477;48.224;11.470;2023-04-08T05:00:40;96199.56;;;5.49;75.87
44751;BME280;30477;48.224;11.470;2023-04-08T05:03:05;96200.59;;;5.46;75.46
44751;BME280;30477;48.224;11.470;2023-04-08T05:05:30;96209.59;;;5.52;75.31
44751;BME280;30477;48.224;11.470;2023-04-08T05:07:56;96206.31;;;5.50;75.23
44751;BME280;30477;48.224;11.470;2023-04-08T05:10:21;96209.22;;;5.45;75.06
44751;BME280;30477;48.224;11.470;2023-04-08T05:12:47;96212.91;;;5.41;75.23
44751;BME280;30477;48.224;11.470;2023-04-08T05:15:12;96207.97;;;5.51;75.46
44751;BME280;30477;48.224;11.470;2023-04-08T05:17:37;96209.31;;;5.57;75.06
44751;BME280;30477;48.224;11.470;2023-04-08T05:20:03;96211.13;;;5.67;75.29
44751;BME280;30477;48.224;11.470;2023-04-08T05:22:29;96207.91;;;5.77;75.20
44751;BME280;30477;48.224;11.470;2023-04-08T05:24:54;96206.59;;;5.84;74.91
44751;BME280;30477;48.224;11.470;2023-04-08T05:27:20;96214.16;;;5.85;74.71
44751;BME280;30477;48.224;11.470;2023-04-08T05:29:45;96212.84;;;5.80;74.83
44751;BME280;30477;48.224;11.470;2023-04-08T05:32:11;96208.91;;;5.87;75.12
44751;BME280;30477;48.224;11.470;2023-04-08T05:34:36;96217.44;;;6.00;75.00
44751;BME280;30477;48.224;11.470;2023-04-08T05:37:02;96209.25;;;5.95;74.69
44751;BME280;30477;48.224;11.470;2023-04-08T05:39:27;96213.84;;;5.90;74.71
44751;BME280;30477;48.224;11.470;2023-04-08T05:41:52;96206.66;;;5.95;74.67
44751;BME280;30477;48.224;11.470;2023-04-08T05:44:18;96215.38;;;5.93;75.09
44751;BME280;30477;48.224;11.470;2023-04-08T05:46:43;96212.91;;;5.91;75.40
44751;BME280;30477;48.224;11.470;2023-04-08T05:49:08;96216.94;;;5.95;75.39
44751;BME280;30477;48.224;11.470;2023-04-08T05:51:34;96219.00;;;5.90;75.60
44751;BME280;30477;48.224;11.470;2023-04-08T05:53:59;96215.91;;;5.98;75.69
44751;BME280;30477;48.224;11.470;2023-04-08T05:56:25;96220.41;;;5.94;75.93
44751;BME280;30477;48.224;11.470;2023-04-08T05:58:50;96227.84;;;5.99;75.78
44751;BME280;30477;48.224;11.470;2023-04-08T06:01:15;96224.50;;;6.09;75.96
44751;BME280;30477;48.224;11.470;2023-04-08T06:03:41;96231.06;;;6.14;75.88
44751;BME280;30477;48.224;11.470;2023-04-08T06:06:10;96223.75;;;6.20;76.09
44751;BME280;30477;48.224;11.470;2023-04-08T06:08:36;96232.06;;;6.24;75.93
44751;BME280;30477;48.224;11.470;2023-04-08T06:11:01;96232.97;;;6.23;75.88
44751;BME280;30477;48.224;11.470;2023-04-08T06:13:29;96242.13;;;6.27;75.93
44751;BME280;30477;48.224;11.470;2023-04-08T06:15:54;96240.69;;;6.23;75.71
44751;BME280;30477;48.224;11.470;2023-04-08T06:18:20;96240.50;;;6.26;76.19
44751;BME280;30477;48.224;11.470;2023-04-08T06:20:45;96243.22;;;6.36;75.90
44751;BME280;30477;48.224;11.470;2023-04-08T06:23:10;96248.47;;;6.34;75.93
44751;BME280;30477;48.224;11.470;2023-04-08T06:25:36;96244.00;;;6.36;75.90
44751;BME280;30477;48.224;11.470;2023-04-08T06:28:02;96251.72;;;6.36;75.70
44751;BME280;30477;48.224;11.470;2023-04-08T06:30:27;96251.69;;;6.25;75.83
44751;BME280;30477;48.224;11.470;2023-04-08T06:32:52;96244.47;;;6.30;76.00
44751;BME280;30477;48.224;11.470;2023-04-08T06:35:18;96253.81;;;6.31;75.90
44751;BME280;30477;48.224;11.470;2023-04-08T06:37:43;96240.88;;;6.33;75.88
44751;BME280;30477;48.224;11.470;2023-04-08T06:40:09;96249.00;;;6.26;76.09
44751;BME280;30477;48.224;11.470;2023-04-08T06:42:34;96252.00;;;6.20;75.85
44751;BME280;30477;48.224;11.470;2023-04-08T06:45:03;96253.06;;;6.18;76.08
44751;BME280;30477;48.224;11.470;2023-04-08T06:47:28;96253.53;;;6.23;76.00
44751;BME280;30477;48.224;11.470;2023-04-08T06:49:54;96259.28;;;6.26;76.48
44751;BME280;30477;48.224;11.470;2023-04-08T06:52:19;96262.25;;;6.33;76.32
44751;BME280;30477;48.224;11.470;2023-04-08T06:54:44;96259.34;;;6.38;76.22
44751;BME280;30477;48.224;11.470;2023-04-08T06:57:10;96261.97;;;6.49;76.17
44751;BME280;30477;48.224;11.470;2023-04-08T06:59:36;96269.56;;;6.50;76.13
44751;BME280;30477;48.224;11.470;2023-04-08T07:02:01;96265.84;;;6.55;75.90
44751;BME280;30477;48.224;11.470;2023-04-08T07:04:26;96275.50;;;6.64;75.65
44751;BME280;30477;48.224;11.470;2023-04-08T07:06:52;96268.78;;;6.61;75.62
44751;BME280;30477;48.224;11.470;2023-04-08T07:09:17;96272.41;;;6.59;75.13
44751;BME280;30477;48.224;11.470;2023-04-08T07:11:43;96271.38;;;6.61;75.01
44751;BME280;30477;48.224;11.470;2023-04-08T07:14:08;96276.91;;;6.68;74.65
44751;BME280;30477;48.224;11.470;2023-04-08T07:16:33;96281.00;;;6.70;74.24
44751;BME280;30477;48.224;11.470;2023-04-08T07:18:59;96288.00;;;6.68;73.72
44751;BME280;30477;48.224;11.470;2023-04-08T07:21:24;96291.34;;;6.82;73.48
44751;BME280;30477;48.224;11.470;2023-04-08T07:23:49;96287.25;;;6.79;72.95
44751;BME280;30477;48.224;11.470;2023-04-08T07:26:15;96287.72;;;6.84;72.56
44751;BME280;30477;48.224;11.470;2023-04-08T07:28:40;96284.44;;;6.82;72.39
44751;BME280;30477;48.224;11.470;2023-04-08T07:31:11;96290.25;;;6.73;72.13
44751;BME280;30477;48.224;11.470;2023-04-08T07:33:36;96287.47;;;6.76;71.74
44751;BME280;30477;48.224;11.470;2023-04-08T07:36:02;96292.28;;;6.81;71.94
44751;BME280;30477;48.224;11.470;2023-04-08T07:38:27;96291.44;;;6.80;71.16
44751;BME280;30477;48.224;11.470;2023-04-08T07:40:53;96293.44;;;6.77;71.12
44751;BME280;30477;48.224;11.470;2023-04-08T07:43:18;96286.25;;;6.69;70.86
44751;BME280;30477;48.224;11.470;2023-04-08T07:45:43;96296.44;;;6.70;70.39
44751;BME280;30477;48.224;11.470;2023-04-08T07:48:09;96296.28;;;6.61;69.77
44751;BME280;30477;48.224;11.470;2023-04-08T07:50:37;96301.66;;;6.58;69.19
44751;BME280;30477;48.224;11.470;2023-04-08T07:53:02;96293.38;;;6.65;68.94
44751;BME280;30477;48.224;11.470;2023-04-08T07:55:32;96298.84;;;6.61;68.80
44751;BME280;30477;48.224;11.470;2023-04-08T07:57:57;96297.50;;;6.68;68.39
44751;BME280;30477;48.224;11.470;2023-04-08T08:00:23;96297.50;;;6.68;67.60
44751;BME280;30477;48.224;11.470;2023-04-08T08:02:48;96301.22;;;6.64;66.67
44751;BME280;30477;48.224;11.470;2023-04-08T08:05:13;96304.25;;;6.69;65.93
44751;BME280;30477;48.224;11.470;2023-04-08T08:07:39;96289.81;;;6.79;65.53
44751;BME280;30477;48.224;11.470;2023-04-08T08:10:05;96299.88;;;6.82;64.74
44751;BME280;30477;48.224;11.470;2023-04-08T08:12:30;96311.56;;;6.86;64.35
44751;BME280;30477;48.224;11.470;2023-04-08T08:14:56;96312.00;;;6.80;63.52
44751;BME280;30477;48.224;11.470;2023-04-08T08:17:23;96312.19;;;6.90;63.62
44751;BME280;30477;48.224;11.470;2023-04-08T08:19:49;96313.97;;;7.01;63.18
44751;BME280;30477;48.224;11.470;2023-04-08T08:22:15;96315.63;;;7.02;63.15
44751;BME280;30477;48.224;11.470;2023-04-08T08:24:40;96319.34;;;6.98;62.73
44751;BME280;30477;48.224;11.470;2023-04-08T08:27:09;96314.66;;;6.91;62.80
44751;BME280;30477;48.224;11.470;2023-04-08T08:29:34;96322.97;;;6.71;63.08
44751;BME280;30477;48.224;11.470;2023-04-08T08:32:01;96314.72;;;6.79;63.09
44751;BME280;30477;48.224;11.470;2023-04-08T08:34:28;96330.75;;;6.82;63.01
44751;BME280;30477;48.224;11.470;2023-04-08T08:36:53;96339.22;;;6.71;63.39
44751;BME280;30477;48.224;11.470;2023-04-08T08:39:18;96341.31;;;6.66;63.47
44751;BME280;30477;48.224;11.470;2023-04-08T08:41:43;96347.56;;;6.75;63.92
44751;BME280;30477;48.224;11.470;2023-04-08T08:44:10;96334.47;;;6.78;63.39
44751;BME280;30477;48.224;11.470;2023-04-08T08:46:42;96348.03;;;6.80;63.56
44751;BME280;30477;48.224;11.470;2023-04-08T08:49:08;96334.97;;;6.83;63.57
44751;BME280;30477;48.224;11.470;2023-04-08T08:51:33;96333.38;;;6.94;63.64
44751;BME280;30477;48.224;11.470;2023-04-08T08:54:02;96343.84;;;6.79;63.45
44751;BME280;30477;48.224;11.470;2023-04-08T08:56:28;96351.13;;;6.48;63.88
44751;BME280;30477;48.224;11.470;2023-04-08T08:58:53;96345.34;;;6.21;63.62
44751;BME280;30477;48.224;11.470;2023-04-08T09:01:38;96339.19;;;6.10;64.05
44751;BME280;30477;48.224;11.470;2023-04-08T09:06:35;96341.28;;;6.05;64.54
44751;BME280;30477;48.224;11.470;2023-04-08T09:09:00;96353.72;;;6.12;64.96
44751;BME280;30477;48.224;11.470;2023-04-08T09:11:26;96348.72;;;6.21;64.88
44751;BME280;30477;48.224;11.470;2023-04-08T09:13:52;96341.66;;;6.25;65.07
44751;BME280;30477;48.224;11.470;2023-04-08T09:16:19;96348.88;;;6.20;65.07
44751;BME280;30477;48.224;11.470;2023-04-08T09:18:46;96349.06;;;6.17;65.06
44751;BME280;30477;48.224;11.470;2023-04-08T09:21:13;96352.25;;;6.20;65.04
44751;BME280;30477;48.224;11.470;2023-04-08T09:23:46;96343.50;;;6.23;65.36
44751;BME280;30477;48.224;11.470;2023-04-08T09:26:16;96358.06;;;6.35;65.45
44751;BME280;30477;48.224;11.470;2023-04-08T09:28:44;96352.72;;;6.38;65.09
44751;BME280;30477;48.224;11.470;2023-04-08T09:31:23;96352.13;;;6.35;65.42
44751;BME280;30477;48.224;11.470;2023-04-08T09:33:51;96357.41;;;6.44;65.45
44751;BME280;30477;48.224;11.470;2023-04-08T09:36:17;96348.78;;;6.45;64.94
44751;BME280;30477;48.224;11.470;2023-04-08T09:38:43;96355.19;;;6.40;65.10
44751;BME280;30477;48.224;11.470;2023-04-08T09:41:13;96354.13;;;6.42;65.39
44751;BME280;30477;48.224;11.470;2023-04-08T09:43:46;96351.50;;;6.31;65.18
44751;BME280;30477;48.224;11.470;2023-04-08T09:46:14;96350.66;;;6.43;65.35
44751;BME280;30477;48.224;11.470;2023-04-08T09:48:48;96353.09;;;6.58;65.73
44751;BME280;30477;48.224;11.470;2023-04-08T09:51:15;96351.97;;;6.73;65.25
44751;BME280;30477;48.224;11.470;2023-04-08T09:53:49;96351.66;;;6.54;65.19
44751;BME280;30477;48.224;11.470;2023-04-08T09:56:18;96346.22;;;6.45;65.20
44751;BME280;30477;48.224;11.470;2023-04-08T09:59:02;96352.09;;;6.47;65.24
44751;BME280;30477;48.224;11.470;2023-04-08T10:01:37;96344.47;;;6.46;65.09
44751;BME280;30477;48.224;11.470;2023-04-08T10:04:05;96346.50;;;6.54;65.48
44751;BME280;30477;48.224;11.470;2023-04-08T10:06:33;96345.66;;;6.66;65.18
44751;BME280;30477;48.224;11.470;2023-04-08T10:09:00;96344.22;;;6.86;65.43
44751;BME280;30477;48.224;11.470;2023-04-08T10:11:27;96350.59;;;6.80;65.18
44751;BME280;30477;48.224;11.470;2023-04-08T10:13:52;96348.03;;;6.80;65.36
44751;BME280;30477;48.224;11.470;2023-04-08T10:16:22;96342.97;;;6.91;65.43
44751;BME280;30477;48.224;11.470;2023-04-08T10:18:52;96337.31;;;6.86;64.99
44751;BME280;30477;48.224;11.470;2023-04-08T10:23:58;96345.63;;;7.14;65.19
44751;BME280;30477;48.224;11.470;2023-04-08T10:26:43;96341.06;;;7.18;64.92
44751;BME280;30477;48.224;11.470;2023-04-08T10:31:44;96346.66;;;7.11;64.54
44751;BME280;30477;48.224;11.470;2023-04-08T10:36:41;96343.00;;;7.03;64.87
44751;BME280;30477;48.224;11.470;2023-04-08T10:39:07;96349.81;;;7.15;64.71
44751;BME280;30477;48.224;11.470;2023-04-08T10:41:32;96348.66;;;7.08;64.46
44751;BME280;30477;48.224;11.470;2023-04-08T10:43:58;96345.66;;;7.01;64.87
44751;BME280;30477;48.224;11.470;2023-04-08T10:46:26;96342.41;;;6.99;64.66
44751;BME280;30477;48.224;11.470;2023-04-08T10:48:59;96342.25;;;6.89;64.72
44751;BME280;30477;48.224;11.470;2023-04-08T10:51:29;96355.13;;;6.89;64.54
44751;BME280;30477;48.224;11.470;2023-04-08T10:54:04;96353.78;;;6.84;64.66
44751;BME280;30477;48.224;11.470;2023-04-08T10:56:30;96350.16;;;6.86;64.93
44751;BME280;30477;48.224;11.470;2023-04-08T10:58:55;96346.34;;;6.92;65.07
44751;BME280;30477;48.224;11.470;2023-04-08T11:01:21;96343.44;;;6.97;64.96
44751;BME280;30477;48.224;11.470;2023-04-08T11:03:47;96354.34;;;7.00;65.09
44751;BME280;30477;48.224;11.470;2023-04-08T11:06:13;96357.00;;;6.99;64.81
44751;BME280;30477;48.224;11.470;2023-04-08T11:08:39;96355.59;;;6.95;64.91
44751;BME280;30477;48.224;11.470;2023-04-08T11:11:05;96352.09;;;6.96;64.76
44751;BME280;30477;48.224;11.470;2023-04-08T11:13:39;96354.34;;;7.00;65.05
44751;BME280;30477;48.224;11.470;2023-04-08T11:16:06;96349.09;;;7.02;64.85
44751;BME280;30477;48.224;11.470;2023-04-08T11:18:36;96351.09;;;7.09;65.17
44751;BME280;30477;48.224;11.470;2023-04-08T11:21:03;96352.63;;;7.12;65.22
44751;BME280;30477;48.224;11.470;2023-04-08T11:23:32;96361.28;;;7.11;65.08
44751;BME280;30477;48.224;11.470;2023-04-08T11:25:57;96358.66;;;7.00;64.92
44751;BME280;30477;48.224;11.470;2023-04-08T11:28:23;96356.25;;;6.85;65.09
44751;BME280;30477;48.224;11.470;2023-04-08T11:30:50;96365.13;;;6.81;65.60
44751;BME280;30477;48.224;11.470;2023-04-08T11:33:17;96362.84;;;6.89;65.60
44751;BME280;30477;48.224;11.470;2023-04-08T11:35:43;96360.75;;;6.95;65.66
44751;BME280;30477;48.224;11.470;2023-04-08T11:38:09;96363.03;;;6.86;65.42
44751;BME280;30477;48.224;11.470;2023-04-08T11:40:36;96366.16;;;6.79;65.41
44751;BME280;30477;48.224;11.470;2023-04-08T11:43:12;96370.31;;;6.68;65.16
44751;BME280;30477;48.224;11.470;2023-04-08T11:45:40;96373.22;;;6.64;66.07
44751;BME280;30477;48.224;11.470;2023-04-08T11:48:13;96373.94;;;6.66;65.92
44751;BME280;30477;48.224;11.470;2023-04-08T11:50:39;96370.03;;;6.60;65.64
44751;BME280;30477;48.224;11.470;2023-04-08T11:53:21;96364.28;;;6.57;65.80
44751;BME280;30477;48.224;11.470;2023-04-08T11:55:49;96369.97;;;6.49;66.18
44751;BME280;30477;48.224;11.470;2023-04-08T11:58:14;96372.22;;;6.54;66.57
44751;BME280;30477;48.224;11.470;2023-04-08T12:00:40;96367.66;;;6.70;66.48
44751;BME280;30477;48.224;11.470;2023-04-08T12:03:06;96369.50;;;6.68;66.03
44751;BME280;30477;48.224;11.470;2023-04-08T12:05:32;96362.31;;;6.60;66.00
44751;BME280;30477;48.224;11.470;2023-04-08T12:07:57;96377.78;;;6.47;65.77
44751;BME280;30477;48.224;11.470;2023-04-08T12:10:22;96380.38;;;6.47;66.06
44751;BME280;30477;48.224;11.470;2023-04-08T12:12:49;96378.28;;;6.53;66.07
44751;BME280;30477;48.224;11.470;2023-04-08T12:15:14;96381.78;;;6.52;65.81
44751;BME280;30477;48.224;11.470;2023-04-08T12:17:40;96380.88;;;6.40;65.50
44751;BME280;30477;48.224;11.470;2023-04-08T12:20:05;96386.06;;;6.27;66.25
44751;BME280;30477;48.224;11.470;2023-04-08T12:22:31;96388.28;;;6.44;66.19
44751;BME280;30477;48.224;11.470;2023-04-08T12:24:57;96383.56;;;6.51;66.49
44751;BME280;30477;48.224;11.470;2023-04-08T12:27:22;96380.13;;;6.50;66.32
44751;BME280;30477;48.224;11.470;2023-04-08T12:29:47;96391.13;;;6.53;66.48
44751;BME280;30477;48.224;11.470;2023-04-08T12:32:14;96389.72;;;6.48;66.51
44751;BME280;30477;48.224;11.470;2023-04-08T12:34:39;96386.50;;;6.58;66.50
44751;BME280;30477;48.224;11.470;2023-04-08T12:37:05;96382.09;;;6.60;66.41
44751;BME280;30477;48.224;11.470;2023-04-08T12:39:30;96386.38;;;6.72;66.30
44751;BME280;30477;48.224;11.470;2023-04-08T12:41:56;96392.38;;;6.60;66.02
44751;BME280;30477;48.224;11.470;2023-04-08T12:44:21;96385.66;;;6.57;66.46
44751;BME280;30477;48.224;11.470;2023-04-08T12:46:46;96397.50;;;6.60;66.63
44751;BME280;30477;48.224;11.470;2023-04-08T12:49:12;96391.66;;;6.58;66.49
44751;BME280;30477;48.224;11.470;2023-04-08T12:51:37;96391.56;;;6.46;66.58
44751;BME280;30477;48.224;11.470;2023-04-08T12:54:03;96394.22;;;6.58;66.36
44751;BME280;30477;48.224;11.470;2023-04-08T12:56:30;96393.00;;;6.50;66.13
44751;BME280;30477;48.224;11.470;2023-04-08T12:58:55;96401.66;;;6.49;66.57
44751;BME280;30477;48.224;11.470;2023-04-08T13:01:21;96398.44;;;6.59;66.43
44751;BME280;30477;48.224;11.470;2023-04-08T13:03:47;96398.50;;;6.70;66.59
44751;BME280;30477;48.224;11.470;2023-04-08T13:06:12;96387.00;;;6.63;66.30
44751;BME280;30477;48.224;11.470;2023-04-08T13:08:38;96393.00;;;6.50;66.66
44751;BME280;30477;48.224;11.470;2023-04-08T13:11:03;96398.78;;;6.41;67.06
44751;BME280;30477;48.224;11.470;2023-04-08T13:13:28;96399.50;;;6.43;67.19
44751;BME280;30477;48.224;11.470;2023-04-08T13:15:54;96401.25;;;6.43;67.43